Time;durP1;ratioP1;P1;durP2;ratioP2;P2;SDS_P1;SDS_P2;PMS_P1;PMS_P2;Temp;Humidity;BMP_temperature;BMP_pressure;BME280_temperature;BME280_humidity;BME280_pressure;Samples;Min_cycle;Max_cycle;Signal;HPM_P1;HPM_P2
2022/10/07 00:01:11;;;;;;;9.40;1.95;;;10.20;97.30;;;;;;5113517;27;20051;-64
2022/10/07 00:03:37;;;;;;;11.73;3.20;;;10.10;97.40;;;;;;5101038;27;20047;-65
2022/10/07 00:06:05;;;;;;;9.25;2.13;;;10.20;97.70;;;;;;5125554;27;20043;-65
2022/10/07 00:08:30;;;;;;;8.50;2.22;;;10.10;97.40;;;;;;5131357;27;20510;-65
2022/10/07 00:10:56;;;;;;;9.50;2.53;;;10.10;97.30;;;;;;5095316;27;20078;-67
2022/10/07 00:13:22;;;;;;;10.52;2.25;;;10.10;97.40;;;;;;5111176;27;20101;-65
2022/10/07 00:15:48;;;;;;;9.82;2.55;;;10.10;97.30;;;;;;5131284;27;20050;-64
2022/10/07 00:18:14;;;;;;;10.50;2.97;;;10.10;97.40;;;;;;5131993;27;20092;-65
2022/10/07 00:20:40;;;;;;;10.07;2.60;;;10.10;97.50;;;;;;5089703;28;20047;-65
2022/10/07 00:23:06;;;;;;;6.65;2.30;;;10.20;97.30;;;;;;5108713;28;20048;-65
2022/10/07 00:25:36;;;;;;;11.43;2.75;;;10.20;97.30;;;;;;5112131;27;20126;-64
2022/10/07 00:28:02;;;;;;;11.23;2.33;;;10.10;97.30;;;;;;5107439;27;20092;-64
2022/10/07 00:30:28;;;;;;;8.63;2.17;;;10.10;97.20;;;;;;5109563;28;20058;-64
2022/10/07 00:32:54;;;;;;;8.85;2.20;;;10.20;97.20;;;;;;5121223;27;20042;-65
2022/10/07 00:35:20;;;;;;;7.25;2.35;;;10.10;97.20;;;;;;5110590;27;20130;-65
2022/10/07 00:37:45;;;;;;;9.15;2.35;;;10.10;97.40;;;;;;5119976;27;20043;-64
2022/10/07 00:40:12;;;;;;;9.38;2.47;;;10.10;97.40;;;;;;5130970;27;20134;-65
2022/10/07 00:42:39;;;;;;;12.75;2.67;;;10.10;97.30;;;;;;5112172;27;20127;-64
2022/10/07 00:45:11;;;;;;;7.88;2.30;;;10.00;97.40;;;;;;5112809;27;20536;-64
2022/10/07 00:47:37;;;;;;;8.02;2.47;;;10.00;97.40;;;;;;5095178;27;20058;-64
2022/10/07 00:50:10;;;;;;;10.95;2.63;;;10.00;97.40;;;;;;5090171;27;20043;-66
2022/10/07 00:52:56;;;;;;;9.32;2.50;;;10.00;97.40;;;;;;5113091;27;20062;-65
2022/10/07 00:55:23;;;;;;;9.55;2.17;;;10.00;97.40;;;;;;5113301;27;20038;-64
2022/10/07 00:57:49;;;;;;;8.57;2.33;;;10.00;97.50;;;;;;5113536;27;20650;-65
2022/10/07 01:00:15;;;;;;;6.60;2.08;;;9.90;97.80;;;;;;5105616;27;20043;-65
2022/10/07 01:02:42;;;;;;;9.32;2.20;;;9.80;97.80;;;;;;5110374;28;20108;-65
2022/10/07 01:05:08;;;;;;;8.68;2.70;;;9.80;97.90;;;;;;5123053;27;20032;-64
2022/10/07 01:07:34;;;;;;;9.07;2.70;;;9.80;97.80;;;;;;5102605;28;20147;-64
2022/10/07 01:10:00;;;;;;;13.85;2.95;;;9.80;97.90;;;;;;5073862;28;20126;-66
2022/10/07 01:12:32;;;;;;;8.85;2.60;;;9.70;97.90;;;;;;5096087;27;20054;-66
2022/10/07 01:15:36;;;;;;;14.75;2.65;;;9.70;98.00;;;;;;5127813;27;20460;-66
2022/10/07 01:18:34;;;;;;;6.60;2.38;;;9.70;97.90;;;;;;5059128;28;20080;-66
2022/10/07 01:21:24;;;;;;;8.40;2.08;;;9.70;97.90;;;;;;5032922;28;20076;-66
2022/10/07 01:24:06;;;;;;;8.13;2.30;;;9.60;97.90;;;;;;5091968;28;20369;-67
2022/10/07 01:26:44;;;;;;;9.68;2.40;;;9.50;98.10;;;;;;5128762;27;20039;-65
2022/10/07 01:29:21;;;;;;;7.80;2.47;;;9.50;98.10;;;;;;5121697;27;20051;-66
2022/10/07 01:31:52;;;;;;;16.63;2.70;;;9.50;98.00;;;;;;5104818;28;20043;-64
2022/10/07 01:34:17;;;;;;;12.32;2.38;;;9.50;98.10;;;;;;5129788;27;20051;-64
2022/10/07 01:36:43;;;;;;;11.50;2.60;;;9.50;98.20;;;;;;5091924;28;20086;-64
2022/10/07 01:39:11;;;;;;;12.65;3.42;;;9.50;98.00;;;;;;5105689;28;20048;-67
2022/10/07 01:41:37;;;;;;;13.10;2.53;;;9.50;98.00;;;;;;5112982;27;20111;-64
2022/10/07 01:44:03;;;;;;;8.75;2.72;;;9.50;98.10;;;;;;5092075;28;20043;-64
2022/10/07 01:46:29;;;;;;;10.23;2.90;;;9.40;98.10;;;;;;5092398;28;20048;-65
2022/10/07 01:48:56;;;;;;;8.48;2.17;;;9.40;98.20;;;;;;5093164;28;20048;-65
2022/10/07 01:51:23;;;;;;;10.50;2.70;;;9.30;98.30;;;;;;5102242;28;20503;-66
2022/10/07 01:54:05;;;;;;;9.30;2.67;;;9.20;98.50;;;;;;5127751;27;20564;-65
2022/10/07 01:56:53;;;;;;;7.97;2.42;;;9.10;98.60;;;;;;5122426;27;20068;-64
2022/10/07 01:59:42;;;;;;;16.63;2.78;;;9.20;98.60;;;;;;5115471;27;20490;-64
2022/10/07 02:02:32;;;;;;;8.95;2.60;;;9.10;98.70;;;;;;5122983;27;20039;-65
2022/10/07 02:05:29;;;;;;;11.02;2.70;;;9.10;98.90;;;;;;5117340;27;20050;-64
2022/10/07 02:08:32;;;;;;;8.43;2.22;;;9.10;98.80;;;;;;5116556;27;20040;-66
2022/10/07 02:11:24;;;;;;;9.38;2.63;;;9.10;98.90;;;;;;5128486;27;20371;-65
2022/10/07 02:13:54;;;;;;;9.68;2.30;;;9.20;98.80;;;;;;5129137;27;20074;-66
2022/10/07 02:16:47;;;;;;;10.43;2.70;;;9.20;98.70;;;;;;5127950;27;20051;-65
2022/10/07 02:19:24;;;;;;;9.38;2.92;;;9.20;98.70;;;;;;5115856;27;20057;-65
2022/10/07 02:21:51;;;;;;;10.85;3.00;;;9.20;98.70;;;;;;5092556;28;20051;-65
2022/10/07 02:24:37;;;;;;;9.38;2.30;;;9.20;99.00;;;;;;5107460;28;20054;-64
2022/10/07 02:27:05;;;;;;;11.02;2.67;;;9.10;98.80;;;;;;5127741;27;20723;-64
2022/10/07 02:29:33;;;;;;;10.88;3.33;;;9.10;98.80;;;;;;5111011;27;20043;-65
2022/10/07 02:31:59;;;;;;;8.27;2.75;;;9.00;98.80;;;;;;5112024;27;20094;-65
2022/10/07 02:34:25;;;;;;;10.02;2.70;;;9.00;98.80;;;;;;5095431;28;20059;-65
2022/10/07 02:36:57;;;;;;;9.38;3.20;;;9.00;98.90;;;;;;5088830;27;20078;-65
2022/10/07 02:39:23;;;;;;;11.27;2.95;;;9.00;98.80;;;;;;5128233;27;20043;-65
2022/10/07 02:42:02;;;;;;;12.05;2.75;;;8.90;99.00;;;;;;5110548;28;20100;-65
2022/10/07 02:44:52;;;;;;;10.55;2.80;;;8.90;99.00;;;;;;5122609;28;20050;-65
2022/10/07 02:47:27;;;;;;;10.95;3.70;;;8.90;99.10;;;;;;5107200;28;20088;-64
2022/10/07 02:49:53;;;;;;;13.48;2.78;;;8.90;99.10;;;;;;5098877;28;20134;-65
2022/10/07 02:52:19;;;;;;;8.85;3.10;;;8.90;99.10;;;;;;5102184;28;20206;-65
2022/10/07 02:55:05;;;;;;;8.10;2.92;;;8.90;99.00;;;;;;5122166;27;20380;-64
2022/10/07 02:57:37;;;;;;;9.70;3.35;;;8.80;99.10;;;;;;5121858;28;20055;-65
2022/10/07 03:00:03;;;;;;;11.30;3.42;;;8.80;99.10;;;;;;5091677;28;20107;-65
2022/10/07 03:02:53;;;;;;;10.65;3.78;;;8.80;99.10;;;;;;5093590;28;20046;-64
2022/10/07 03:05:19;;;;;;;10.27;2.90;;;8.70;99.10;;;;;;5127710;28;20050;-65
2022/10/07 03:07:49;;;;;;;14.65;3.53;;;8.70;99.20;;;;;;5094818;28;20050;-64
2022/10/07 03:10:18;;;;;;;10.95;3.08;;;8.70;99.20;;;;;;5101990;28;20043;-66
2022/10/07 03:12:45;;;;;;;9.00;3.10;;;8.80;99.20;;;;;;5125037;28;20146;-66
2022/10/07 03:15:10;;;;;;;10.38;3.13;;;8.80;99.20;;;;;;5086356;28;20074;-64
2022/10/07 03:17:38;;;;;;;9.02;2.95;;;8.70;99.20;;;;;;5110084;28;20467;-65
2022/10/07 03:20:04;;;;;;;7.35;2.80;;;8.70;99.20;;;;;;5091741;28;20070;-64
2022/10/07 03:22:32;;;;;;;14.10;3.22;;;8.70;99.20;;;;;;5120200;28;20077;-64
2022/10/07 03:24:57;;;;;;;7.57;3.03;;;8.80;99.20;;;;;;5126287;28;20040;-64
2022/10/07 03:27:24;;;;;;;9.35;2.80;;;8.80;99.20;;;;;;5100372;28;20108;-65
2022/10/07 03:29:53;;;;;;;12.10;3.40;;;8.70;99.10;;;;;;5067576;28;20052;-65
2022/10/07 03:32:19;;;;;;;6.93;2.70;;;8.70;99.40;;;;;;5099887;28;20050;-65
2022/10/07 03:34:44;;;;;;;7.35;2.80;;;8.70;99.50;;;;;;5108320;28;20055;-64
2022/10/07 03:37:11;;;;;;;12.68;4.13;;;8.70;99.40;;;;;;5094159;28;20046;-65
2022/10/07 03:39:37;;;;;;;10.82;2.85;;;8.60;99.40;;;;;;5127982;28;20053;-65
2022/10/07 03:42:04;;;;;;;10.52;3.15;;;8.60;99.40;;;;;;5122417;28;20047;-64
2022/10/07 03:44:29;;;;;;;8.02;3.03;;;8.60;99.30;;;;;;5111186;28;20039;-64
2022/10/07 03:46:55;;;;;;;10.57;3.45;;;8.60;99.40;;;;;;5128104;27;20053;-65
2022/10/07 03:49:21;;;;;;;11.35;3.30;;;8.60;99.30;;;;;;5077080;27;20051;-64
2022/10/07 03:51:47;;;;;;;14.50;3.00;;;8.60;99.30;;;;;;5091902;27;20404;-64
2022/10/07 03:54:12;;;;;;;7.13;2.70;;;8.60;99.40;;;;;;5119550;27;20063;-67
2022/10/07 03:56:38;;;;;;;13.88;3.50;;;8.50;99.40;;;;;;5121079;27;20569;-65
2022/10/07 03:59:04;;;;;;;13.30;3.00;;;8.50;99.40;;;;;;5098346;27;20615;-64
2022/10/07 04:01:30;;;;;;;9.70;2.95;;;8.40;99.60;;;;;;5107763;28;20050;-64
2022/10/07 04:03:56;;;;;;;9.90;3.22;;;8.40;99.70;;;;;;5104452;28;20468;-65
2022/10/07 04:06:22;;;;;;;8.80;3.28;;;8.40;99.70;;;;;;5108077;27;20495;-65
2022/10/07 04:08:52;;;;;;;8.38;3.58;;;8.40;99.80;;;;;;5108528;28;20043;-64
2022/10/07 04:11:17;;;;;;;8.88;3.03;;;8.30;99.80;;;;;;5111402;28;20514;-64
2022/10/07 04:13:44;;;;;;;9.93;3.15;;;8.30;99.90;;;;;;5122625;27;20088;-65
2022/10/07 04:16:10;;;;;;;9.32;3.72;;;8.20;99.90;;;;;;5123321;27;20102;-65
2022/10/07 04:18:35;;;;;;;10.88;3.03;;;8.20;99.80;;;;;;5092894;28;20373;-66
2022/10/07 04:21:01;;;;;;;12.70;3.05;;;8.20;99.90;;;;;;5094460;28;20043;-66
2022/10/07 04:23:27;;;;;;;11.77;3.15;;;8.20;99.90;;;;;;5131593;27;20423;-65
2022/10/07 04:25:53;;;;;;;13.25;4.38;;;8.20;99.90;;;;;;5111206;27;20070;-64
2022/10/07 04:28:20;;;;;;;13.38;3.60;;;8.20;99.90;;;;;;5108000;28;20040;-65
2022/10/07 04:30:50;;;;;;;11.07;3.15;;;8.20;99.90;;;;;;5107405;28;20035;-64
2022/10/07 04:33:19;;;;;;;7.60;2.75;;;8.20;99.90;;;;;;5110757;28;20191;-63
2022/10/07 04:35:45;;;;;;;11.40;3.58;;;8.20;99.90;;;;;;5073644;28;20130;-64
2022/10/07 04:38:11;;;;;;;13.27;3.78;;;8.20;99.90;;;;;;5117710;27;20158;-64
2022/10/07 04:40:41;;;;;;;9.05;3.40;;;8.20;99.90;;;;;;5108000;28;20043;-66
2022/10/07 04:43:19;;;;;;;10.32;3.28;;;8.20;99.90;;;;;;5127316;27;20119;-64
2022/10/07 04:46:08;;;;;;;11.25;3.00;;;8.20;99.90;;;;;;5096706;27;20452;-64
2022/10/07 04:48:34;;;;;;;8.02;2.97;;;8.20;99.90;;;;;;5126605;27;20047;-64
2022/10/07 04:51:03;;;;;;;9.80;3.20;;;8.20;99.90;;;;;;5114300;27;20119;-64
2022/10/07 04:53:30;;;;;;;10.82;2.90;;;8.20;99.90;;;;;;5114969;27;20103;-66
2022/10/07 04:55:56;;;;;;;11.52;2.85;;;8.20;99.90;;;;;;5111482;27;20052;-66
2022/10/07 04:58:22;;;;;;;10.18;3.25;;;8.20;99.90;;;;;;5117145;27;20043;-64
2022/10/07 05:00:49;;;;;;;9.52;3.55;;;8.20;99.90;;;;;;5087457;28;20039;-65
2022/10/07 05:03:16;;;;;;;11.52;3.33;;;8.10;99.90;;;;;;5123691;27;20126;-64
2022/10/07 05:05:55;;;;;;;8.90;2.90;;;8.10;99.90;;;;;;5093465;28;20043;-64
2022/10/07 05:08:25;;;;;;;7.82;3.20;;;8.10;99.90;;;;;;5100525;27;20051;-64
2022/10/07 05:10:55;;;;;;;11.68;3.45;;;8.10;99.90;;;;;;5106401;27;20050;-64
2022/10/07 05:13:21;;;;;;;8.52;2.70;;;8.10;99.90;;;;;;5078137;27;20047;-67
2022/10/07 05:16:00;;;;;;;6.85;3.05;;;8.20;99.90;;;;;;5099007;27;20063;-64
2022/10/07 05:18:26;;;;;;;11.35;3.15;;;8.20;99.90;;;;;;5099099;27;20053;-64
2022/10/07 05:20:52;;;;;;;11.50;2.53;;;8.20;99.90;;;;;;5094335;27;20433;-64
2022/10/07 05:23:20;;;;;;;13.43;3.03;;;8.10;99.90;;;;;;5105471;27;20035;-64
2022/10/07 05:25:45;;;;;;;9.48;2.78;;;8.10;99.90;;;;;;5096693;27;20096;-64
2022/10/07 05:28:12;;;;;;;11.07;2.92;;;8.10;99.90;;;;;;5121093;27;20398;-65
2022/10/07 05:30:38;;;;;;;10.02;3.03;;;8.10;99.90;;;;;;5124470;27;20043;-65
2022/10/07 05:33:03;;;;;;;9.52;2.80;;;8.10;99.90;;;;;;5094592;27;20117;-64
2022/10/07 05:35:30;;;;;;;11.95;2.83;;;8.10;99.90;;;;;;5110333;27;20063;-65
2022/10/07 05:37:56;;;;;;;10.27;3.00;;;8.10;99.90;;;;;;5099149;27;20070;-65
2022/10/07 05:40:22;;;;;;;9.00;3.20;;;8.10;99.90;;;;;;5107227;27;20138;-64
2022/10/07 05:42:48;;;;;;;15.82;2.92;;;8.10;99.90;;;;;;5104332;27;20046;-64
2022/10/07 05:45:14;;;;;;;8.38;3.25;;;8.20;99.90;;;;;;5119357;27;20527;-65
2022/10/07 05:47:40;;;;;;;11.25;3.25;;;8.20;99.90;;;;;;5129626;27;20154;-64
2022/10/07 05:50:10;;;;;;;10.30;2.67;;;8.20;99.90;;;;;;5087326;27;20392;-64
2022/10/07 05:52:37;;;;;;;10.73;3.45;;;8.30;99.90;;;;;;5092385;28;20043;-64
2022/10/07 05:55:03;;;;;;;7.57;2.80;;;8.30;99.90;;;;;;5102126;28;20040;-64
2022/10/07 05:57:28;;;;;;;11.90;2.78;;;8.30;99.80;;;;;;5099121;27;20062;-64
2022/10/07 05:59:57;;;;;;;16.35;4.00;;;8.30;99.90;;;;;;5122114;27;20047;-64
2022/10/07 06:02:24;;;;;;;9.73;2.78;;;8.30;99.80;;;;;;5101274;28;20167;-66
2022/10/07 06:04:50;;;;;;;9.60;3.42;;;8.30;99.80;;;;;;5064524;28;20570;-65
2022/10/07 06:07:16;;;;;;;14.63;3.30;;;8.40;99.70;;;;;;5121314;27;20047;-67
2022/10/07 06:15:11;;;;;;;8.40;3.25;;;8.20;99.90;;;;;;5090084;27;20409;-65
2022/10/07 06:17:43;;;;;;;9.27;3.00;;;8.20;99.90;;;;;;5087641;27;20132;-64
2022/10/07 06:20:10;;;;;;;8.77;2.65;;;8.20;99.90;;;;;;5095189;27;20043;-64
2022/10/07 06:22:36;;;;;;;11.35;2.75;;;8.20;99.80;;;;;;5104311;27;20058;-65
2022/10/07 06:25:02;;;;;;;12.40;3.20;;;8.30;99.70;;;;;;5103840;27;20046;-64
2022/10/07 06:27:28;;;;;;;10.05;2.50;;;8.30;99.70;;;;;;5084866;28;20043;-64
2022/10/07 06:29:54;;;;;;;14.18;3.40;;;8.30;99.70;;;;;;5104045;27;20044;-64
2022/10/07 06:32:20;;;;;;;7.45;2.53;;;8.30;99.60;;;;;;5087387;27;20044;-64
2022/10/07 06:34:46;;;;;;;10.20;3.08;;;8.40;99.60;;;;;;5086239;28;20128;-64
2022/10/07 06:37:12;;;;;;;11.35;2.92;;;8.40;99.50;;;;;;5083000;28;20499;-64
2022/10/07 06:39:38;;;;;;;15.50;3.25;;;8.40;99.40;;;;;;5099322;28;20449;-64
2022/10/07 06:42:03;;;;;;;6.80;2.65;;;8.40;99.40;;;;;;5091556;28;20044;-64
2022/10/07 06:44:30;;;;;;;10.93;2.95;;;8.40;99.30;;;;;;5100537;28;20716;-64
2022/10/07 06:46:55;;;;;;;7.55;2.33;;;8.40;99.40;;;;;;5078809;28;20572;-64
2022/10/07 06:49:21;;;;;;;16.30;3.20;;;8.40;99.30;;;;;;5086936;28;20131;-64
2022/10/07 06:51:48;;;;;;;10.18;3.00;;;8.50;99.30;;;;;;5100803;28;20079;-64
2022/10/07 06:54:14;;;;;;;9.80;3.85;;;8.50;99.30;;;;;;5100504;28;20051;-64
2022/10/07 06:56:40;;;;;;;12.63;4.85;;;8.50;99.20;;;;;;5095897;28;20043;-64
2022/10/07 06:59:05;;;;;;;11.80;3.28;;;8.60;99.20;;;;;;5073134;28;20346;-63
2022/10/07 07:01:31;;;;;;;9.18;3.40;;;8.60;99.20;;;;;;5075009;28;20051;-64
2022/10/07 07:03:57;;;;;;;10.32;3.28;;;8.60;99.30;;;;;;5095723;28;20060;-64
2022/10/07 07:06:25;;;;;;;8.52;3.00;;;8.60;99.20;;;;;;5101332;28;20079;-64
2022/10/07 07:08:50;;;;;;;12.23;3.00;;;8.70;99.20;;;;;;5077742;28;20047;-65
2022/10/07 07:11:34;;;;;;;13.45;2.80;;;8.80;99.10;;;;;;5061906;28;20350;-65
2022/10/07 07:14:05;;;;;;;13.10;3.10;;;8.80;99.00;;;;;;5101325;28;20343;-65
2022/10/07 07:16:31;;;;;;;8.73;2.80;;;8.90;99.10;;;;;;5070526;28;20055;-64
2022/10/07 07:19:06;;;;;;;9.65;3.10;;;9.00;99.00;;;;;;5069067;28;20112;-64
2022/10/07 07:21:34;;;;;;;6.93;2.72;;;9.00;99.00;;;;;;5094425;28;20040;-64
2022/10/07 07:24:01;;;;;;;8.57;2.72;;;9.10;99.00;;;;;;5084691;28;20369;-64
2022/10/07 07:26:27;;;;;;;10.20;3.00;;;9.20;98.90;;;;;;5067830;28;20074;-64
2022/10/07 07:28:58;;;;;;;11.95;2.95;;;9.20;98.80;;;;;;5078431;28;20104;-63
2022/10/07 07:31:28;;;;;;;11.30;2.55;;;9.30;98.80;;;;;;5096777;28;20561;-63
2022/10/07 07:33:56;;;;;;;9.07;2.85;;;9.40;98.80;;;;;;5072550;28;20459;-64
2022/10/07 07:36:23;;;;;;;9.57;2.60;;;9.40;98.80;;;;;;5130956;27;20082;-64
2022/10/07 07:38:53;;;;;;;10.63;3.38;;;9.50;98.80;;;;;;5077048;27;20044;-64
2022/10/07 07:41:21;;;;;;;7.50;2.58;;;9.60;98.80;;;;;;5124770;27;20047;-64
2022/10/07 07:43:50;;;;;;;10.02;2.88;;;9.70;98.80;;;;;;5090565;28;20043;-64
2022/10/07 07:46:17;;;;;;;7.22;2.40;;;9.70;98.70;;;;;;5088733;28;20035;-68
2022/10/07 07:48:43;;;;;;;6.68;2.45;;;9.80;98.80;;;;;;5092900;27;20082;-67
2022/10/07 07:51:09;;;;;;;10.73;2.53;;;9.90;98.90;;;;;;5090095;27;20079;-67
2022/10/07 07:53:38;;;;;;;14.07;5.47;;;10.00;98.90;;;;;;5127485;27;20043;-67
2022/10/07 07:56:04;;;;;;;10.68;3.75;;;10.10;98.90;;;;;;5113549;27;20046;-68
2022/10/07 07:58:30;;;;;;;8.80;2.70;;;10.20;98.90;;;;;;5123228;27;20047;-67
2022/10/07 08:01:00;;;;;;;10.02;2.65;;;10.30;98.80;;;;;;5122149;27;20046;-68
2022/10/07 08:03:26;;;;;;;9.10;2.80;;;10.40;98.80;;;;;;5089713;28;20482;-69
2022/10/07 08:06:03;;;;;;;10.25;2.67;;;10.50;98.70;;;;;;5098989;27;20038;-69
2022/10/07 08:08:29;;;;;;;16.10;5.70;;;10.60;98.90;;;;;;5088933;27;20496;-69
2022/10/07 08:10:55;;;;;;;7.75;2.67;;;10.80;98.70;;;;;;5107765;27;20039;-68
2022/10/07 08:13:20;;;;;;;10.02;2.50;;;10.90;99.00;;;;;;5098698;27;20054;-69
2022/10/07 08:15:46;;;;;;;11.90;2.30;;;11.00;98.10;;;;;;5119008;27;20047;-69
2022/10/07 08:18:13;;;;;;;9.32;2.35;;;11.10;98.50;;;;;;5116777;27;20058;-69
2022/10/07 08:20:41;;;;;;;8.00;2.28;;;11.30;98.00;;;;;;5118311;27;20042;-70
2022/10/07 08:23:07;;;;;;;;;;;11.40;97.20;;;;;;5071927;27;20043;-70
2022/10/07 08:25:33;;;;;;;10.30;2.13;;;11.50;97.40;;;;;;5129833;27;19923;-71
2022/10/07 08:27:59;;;;;;;7.65;2.15;;;11.70;97.80;;;;;;5118179;27;20035;-71
2022/10/07 08:30:25;;;;;;;8.38;2.10;;;11.70;96.90;;;;;;5101664;27;20503;-69
2022/10/07 08:32:52;;;;;;;6.80;1.80;;;11.80;96.20;;;;;;5111669;27;20047;-70
2022/10/07 08:35:18;;;;;;;9.77;2.00;;;11.90;96.70;;;;;;5115977;27;20086;-70
2022/10/07 08:37:44;;;;;;;6.80;2.03;;;12.00;96.60;;;;;;5068627;28;20047;-70
2022/10/07 08:40:14;;;;;;;5.03;1.80;;;12.20;95.80;;;;;;5086744;28;20492;-70
2022/10/07 08:42:40;;;;;;;10.35;2.15;;;12.30;96.40;;;;;;5084847;28;20055;-69
2022/10/07 08:45:09;;;;;;;10.00;2.30;;;12.50;94.90;;;;;;5070715;28;20101;-69
2022/10/07 08:47:44;;;;;;;10.95;2.15;;;12.60;95.60;;;;;;5075556;28;20055;-70
2022/10/07 08:50:15;;;;;;;8.98;2.38;;;12.80;95.90;;;;;;5080191;27;20079;-70
2022/10/07 08:52:49;;;;;;;8.50;2.15;;;12.90;94.90;;;;;;5098255;27;20054;-70
2022/10/07 08:55:18;;;;;;;11.23;2.50;;;13.00;94.80;;;;;;5090120;27;20054;-69
2022/10/07 08:58:02;;;;;;;7.28;2.17;;;13.00;93.90;;;;;;5109737;28;20108;-69
2022/10/07 09:00:47;;;;;;;8.63;2.42;;;13.00;94.40;;;;;;5127580;27;20047;-69
2022/10/07 09:03:38;;;;;;;12.63;2.28;;;13.10;93.80;;;;;;5075885;27;20473;-70
2022/10/07 09:06:09;;;;;;;10.32;3.30;;;13.20;93.60;;;;;;5100422;27;20042;-68
2022/10/07 09:08:39;;;;;;;10.00;2.70;;;13.30;93.60;;;;;;5069515;28;20039;-69
2022/10/07 09:14:30;;;;;;;8.00;2.30;;;13.30;93.10;;;;;;5120058;27;20039;-69
2022/10/07 09:17:03;;;;;;;9.50;2.17;;;13.50;93.50;;;;;;5107284;27;20050;-69
2022/10/07 09:19:35;;;;;;;9.13;2.20;;;13.70;92.80;;;;;;5089708;27;20163;-69
2022/10/07 09:22:22;;;;;;;11.98;2.50;;;13.90;93.10;;;;;;5075461;27;20047;-69
2022/10/07 09:24:52;;;;;;;13.82;2.97;;;14.10;92.80;;;;;;5083313;27;20049;-69
2022/10/07 09:27:21;;;;;;;9.00;2.22;;;14.20;92.40;;;;;;5066557;28;20057;-69
2022/10/07 09:29:50;;;;;;;11.70;2.30;;;14.30;92.90;;;;;;5111997;27;20039;-69
2022/10/07 09:32:17;;;;;;;12.57;2.40;;;14.50;92.00;;;;;;5071284;28;20043;-69
2022/10/07 09:34:48;;;;;;;15.48;2.28;;;14.60;91.90;;;;;;5127242;27;20074;-69
2022/10/07 09:37:22;;;;;;;10.05;2.33;;;14.70;91.50;;;;;;5094406;28;20044;-70
2022/10/07 09:39:49;;;;;;;9.95;2.35;;;14.60;90.60;;;;;;5110051;27;20047;-69
2022/10/07 09:42:27;;;;;;;11.90;2.33;;;14.60;90.30;;;;;;5105351;28;20544;-70
2022/10/07 09:44:53;;;;;;;12.15;2.55;;;14.70;90.60;;;;;;5124650;27;20072;-70
2022/10/07 09:47:31;;;;;;;12.52;2.10;;;14.80;90.50;;;;;;5070080;27;20362;-70
2022/10/07 09:49:58;;;;;;;8.77;1.90;;;14.90;90.20;;;;;;5066362;28;20047;-70
2022/10/07 09:52:26;;;;;;;8.75;2.20;;;15.00;90.20;;;;;;5119099;27;20132;-70
2022/10/07 09:54:57;;;;;;;13.18;3.95;;;15.20;89.30;;;;;;5078032;27;20058;-70
2022/10/07 09:57:34;;;;;;;12.60;3.03;;;15.30;88.70;;;;;;5090413;28;20047;-69
2022/10/07 10:00:12;;;;;;;10.68;2.13;;;15.40;89.50;;;;;;5090938;28;20074;-69
2022/10/07 10:02:50;;;;;;;9.00;2.75;;;15.40;87.10;;;;;;5092124;28;20090;-70
2022/10/07 10:05:28;;;;;;;9.38;1.60;;;15.60;86.00;;;;;;5092227;28;20040;-69
2022/10/07 10:08:02;;;;;;;11.88;2.10;;;15.70;86.50;;;;;;5087668;28;20039;-69
2022/10/07 10:10:30;;;;;;;11.45;2.00;;;15.90;85.90;;;;;;5125793;27;20047;-69
2022/10/07 10:12:56;;;;;;;14.20;2.42;;;16.00;86.20;;;;;;5101847;27;20057;-69
2022/10/07 10:15:22;;;;;;;13.85;1.70;;;16.20;86.30;;;;;;5090430;27;20580;-74
2022/10/07 10:17:51;;;;;;;9.00;1.80;;;16.10;83.70;;;;;;5126839;27;20042;-70
2022/10/07 10:20:22;;;;;;;7.68;1.70;;;16.30;85.40;;;;;;5089150;27;20043;-70
2022/10/07 10:22:49;;;;;;;9.82;2.03;;;16.50;84.50;;;;;;5127288;27;20039;-69
2022/10/07 10:28:09;;;;;;;8.90;1.90;;;16.40;84.10;;;;;;5122484;27;20089;-68
2022/10/07 10:30:36;;;;;;;10.80;2.03;;;16.60;82.80;;;;;;5105321;28;20047;-70
2022/10/07 10:33:23;;;;;;;8.82;2.10;;;16.60;80.70;;;;;;5091336;28;20409;-69
2022/10/07 10:35:53;;;;;;;13.07;2.30;;;16.80;82.00;;;;;;5098035;28;20048;-69
2022/10/07 10:38:26;;;;;;;6.85;1.60;;;16.80;81.00;;;;;;5089690;28;20303;-69
2022/10/07 10:41:01;;;;;;;9.15;2.13;;;17.50;78.20;;;;;;5106694;28;20039;-71
2022/10/07 10:43:34;;;;;;;7.85;2.22;;;18.00;79.10;;;;;;5079226;28;20159;-69
2022/10/07 10:46:16;;;;;;;8.65;1.90;;;19.00;71.40;;;;;;5075048;28;20496;-69
2022/10/07 10:49:09;;;;;;;9.30;1.92;;;20.10;66.40;;;;;;5106943;28;20082;-72
2022/10/07 10:52:01;;;;;;;12.10;3.75;;;21.90;60.80;;;;;;5100181;28;20110;-70
2022/10/07 10:54:39;;;;;;;8.90;2.35;;;22.60;58.10;;;;;;5101741;28;20051;-70
2022/10/07 10:57:08;;;;;;;7.13;1.73;;;23.50;53.30;;;;;;5103664;28;20044;-70
2022/10/07 10:59:49;;;;;;;16.67;3.10;;;24.20;50.70;;;;;;5105213;28;20105;-69
2022/10/07 11:02:30;;;;;;;7.13;2.00;;;24.60;48.30;;;;;;5070361;28;20047;-69
2022/10/07 11:05:44;;;;;;;7.22;2.30;;;23.30;49.90;;;;;;5105847;28;20035;-69
2022/10/07 11:08:19;;;;;;;7.65;2.47;;;22.90;51.40;;;;;;5087868;28;20664;-69
2022/10/07 11:10:49;;;;;;;6.30;1.70;;;23.20;50.70;;;;;;5074908;28;20071;-70
2022/10/07 11:13:27;;;;;;;8.55;1.85;;;22.60;53.30;;;;;;5071192;28;20048;-70
2022/10/07 11:15:56;;;;;;;7.05;1.73;;;23.80;50.90;;;;;;5087206;28;20112;-69
2022/10/07 11:18:35;;;;;;;7.32;1.75;;;24.00;48.50;;;;;;5090585;28;20075;-69
2022/10/07 11:21:02;;;;;;;7.85;1.77;;;24.10;47.90;;;;;;5092022;28;20112;-70
2022/10/07 11:23:49;;;;;;;9.27;2.55;;;24.60;47.30;;;;;;5077226;28;20050;-71
2022/10/07 11:26:43;;;;;;;6.68;2.25;;;24.20;48.10;;;;;;5092019;28;20051;-69
2022/10/07 11:29:47;;;;;;;7.75;1.83;;;24.20;49.60;;;;;;5067737;28;20039;-69
2022/10/07 11:32:37;;;;;;;7.75;1.90;;;23.00;49.60;;;;;;5090226;28;20044;-70
2022/10/07 11:35:31;;;;;;;10.13;2.38;;;21.10;56.40;;;;;;5091412;28;20340;-70
2022/10/07 11:38:09;;;;;;;8.45;1.90;;;20.20;60.40;;;;;;5115416;27;20127;-70
2022/10/07 11:40:44;;;;;;;8.18;2.10;;;20.70;58.70;;;;;;5098398;28;20051;-71
2022/10/07 11:43:17;;;;;;;8.02;2.08;;;21.50;57.40;;;;;;5089694;28;20399;-70
2022/10/07 11:45:51;;;;;;;10.43;2.35;;;20.60;59.20;;;;;;5105324;28;20035;-70
2022/10/07 11:49:02;;;;;;;9.30;2.40;;;20.20;60.10;;;;;;5069650;28;20047;-70
2022/10/07 11:51:33;;;;;;;6.57;1.92;;;21.00;57.70;;;;;;5078055;28;20191;-69
2022/10/07 11:54:01;;;;;;;9.80;1.80;;;20.80;59.80;;;;;;5076562;28;20148;-71
2022/10/07 11:56:43;;;;;;;9.25;2.08;;;20.30;60.30;;;;;;5062298;28;20047;-71
2022/10/07 11:59:18;;;;;;;7.13;2.17;;;20.60;59.20;;;;;;5068434;28;20228;-71
2022/10/07 12:01:51;;;;;;;9.85;1.90;;;21.70;56.00;;;;;;5088131;28;20131;-71
2022/10/07 12:04:34;;;;;;;9.50;2.95;;;22.40;54.00;;;;;;5067350;28;20044;-72
2022/10/07 12:07:31;;;;;;;8.07;2.20;;;22.40;53.60;;;;;;5110427;28;20040;-70
2022/10/07 12:10:06;;;;;;;;;;;21.80;54.70;;;;;;5090204;28;20058;-71
2022/10/07 12:12:41;;;;;;;6.85;1.80;;;22.30;52.60;;;;;;5106721;28;20002;-71
2022/10/07 12:15:27;;;;;;;7.50;1.95;;;23.50;49.10;;;;;;5104829;28;20040;-71
2022/10/07 12:18:03;;;;;;;6.50;2.17;;;22.80;50.30;;;;;;5105622;28;20154;-71
2022/10/07 12:20:50;;;;;;;7.20;2.25;;;22.80;49.60;;;;;;5088208;28;20477;-71
2022/10/07 12:23:19;;;;;;;10.15;3.10;;;22.90;50.50;;;;;;5111118;28;20039;-71
2022/10/07 12:25:48;;;;;;;8.60;2.70;;;23.30;51.50;;;;;;5127016;27;20040;-71
2022/10/07 12:28:46;;;;;;;6.72;2.00;;;23.30;50.80;;;;;;5126645;27;20085;-72
2022/10/07 12:31:12;;;;;;;8.05;2.33;;;23.10;51.20;;;;;;5104629;28;20491;-72
2022/10/07 12:33:46;;;;;;;7.70;2.10;;;22.40;52.80;;;;;;5126505;27;20069;-72
2022/10/07 12:36:20;;;;;;;6.03;1.90;;;22.30;53.00;;;;;;5147370;27;20360;-71
2022/10/07 12:38:58;;;;;;;9.80;2.40;;;22.20;52.70;;;;;;5111443;27;20042;-71
2022/10/07 12:41:34;;;;;;;6.72;1.65;;;22.00;54.60;;;;;;5106323;27;20130;-71
2022/10/07 12:44:18;;;;;;;10.75;2.20;;;23.10;52.20;;;;;;5149104;27;20066;-71
2022/10/07 12:46:52;;;;;;;7.32;1.77;;;22.40;52.70;;;;;;5139526;27;20467;-70
2022/10/07 12:49:35;;;;;;;6.45;1.98;;;22.50;52.80;;;;;;5097153;27;20055;-70
2022/10/07 12:52:36;;;;;;;7.07;1.92;;;23.10;52.50;;;;;;5129189;27;20038;-71
2022/10/07 12:55:06;;;;;;;7.13;1.80;;;22.50;52.90;;;;;;5097776;27;20043;-71
2022/10/07 12:57:39;;;;;;;6.95;1.85;;;23.40;51.50;;;;;;5098310;27;20103;-71
2022/10/07 13:00:23;;;;;;;8.93;2.67;;;23.10;49.80;;;;;;5099291;27;20058;-71
2022/10/07 13:03:17;;;;;;;5.43;1.98;;;23.00;50.70;;;;;;5110475;27;20126;-70
2022/10/07 13:06:01;;;;;;;7.68;1.95;;;22.90;51.20;;;;;;5147108;27;20074;-71
2022/10/07 13:09:04;;;;;;;8.23;2.10;;;22.80;52.20;;;;;;5126287;27;20035;-71
2022/10/07 13:11:38;;;;;;;8.23;2.28;;;22.80;53.30;;;;;;5139592;27;20130;-72
2022/10/07 13:14:34;;;;;;;7.10;2.03;;;23.30;52.00;;;;;;5105174;27;20055;-70
2022/10/07 13:17:25;;;;;;;7.00;1.88;;;23.60;52.00;;;;;;5113231;27;20523;-70
2022/10/07 13:20:13;;;;;;;7.25;1.90;;;22.60;52.50;;;;;;5142977;27;20054;-71
2022/10/07 13:22:47;;;;;;;6.55;2.03;;;22.10;54.20;;;;;;5130384;27;20134;-70
2022/10/07 13:25:13;;;;;;;6.82;1.88;;;22.30;54.70;;;;;;5090510;27;20173;-70